createdAt,value
2023-12-15T00:00:17.984Z,17.02
2023-12-15T00:02:46.381Z,18.15
2023-12-15T00:05:13.267Z,17.70
2023-12-15T00:07:39.904Z,17.70
2023-12-15T00:10:06.836Z,17.27
2023-12-15T00:12:33.330Z,17.52
2023-12-15T00:14:59.739Z,17.38
2023-12-15T00:17:26.250Z,16.85
2023-12-15T00:19:53.051Z,17.48
2023-12-15T00:22:19.416Z,17.75
2023-12-15T00:24:45.882Z,17.45
2023-12-15T00:27:12.303Z,16.80
2023-12-15T00:29:38.744Z,17.90
2023-12-15T00:32:05.306Z,17.33
2023-12-15T00:34:31.740Z,17.58
2023-12-15T00:36:58.192Z,17.95
2023-12-15T00:39:24.624Z,17.60
2023-12-15T00:41:50.950Z,17.60
2023-12-15T00:44:17.408Z,17.73
2023-12-15T00:46:43.858Z,17.60
2023-12-15T00:49:10.291Z,18.42
2023-12-15T00:51:36.706Z,17.48
2023-12-15T00:54:03.104Z,17.35
2023-12-15T00:56:29.524Z,18.10
2023-12-15T00:58:56.023Z,17.70
2023-12-15T01:01:22.457Z,17.83
2023-12-15T01:03:48.946Z,18.58
2023-12-15T01:06:15.497Z,17.58
2023-12-15T01:08:42.001Z,17.83
2023-12-15T01:11:09.512Z,18.42
2023-12-15T01:13:35.995Z,18.23
2023-12-15T01:16:04.641Z,18.85
2023-12-15T01:18:31.141Z,18.17
2023-12-15T01:20:57.635Z,18.45
2023-12-15T01:23:24.177Z,18.25
2023-12-15T01:25:50.674Z,18.58
2023-12-15T01:28:17.101Z,19.00
2023-12-15T01:30:43.566Z,18.98
2023-12-15T01:33:10.019Z,18.95
2023-12-15T01:35:36.501Z,19.08
2023-12-15T01:38:02.931Z,19.08
2023-12-15T01:40:29.388Z,19.23
2023-12-15T01:42:58.812Z,18.15
2023-12-15T01:45:25.208Z,15.30
2023-12-15T01:47:51.747Z,18.00
2023-12-15T01:50:18.325Z,18.17
2023-12-15T01:52:45.080Z,17.90
2023-12-15T01:55:11.515Z,17.83
2023-12-15T01:57:38.234Z,19.35
2023-12-15T02:00:08.101Z,19.13
2023-12-15T02:02:35.162Z,18.98
2023-12-15T02:05:01.868Z,19.65
2023-12-15T02:07:28.333Z,19.17
2023-12-15T02:09:54.748Z,20.00
2023-12-15T02:12:21.160Z,18.70
2023-12-15T02:14:47.504Z,18.77
2023-12-15T02:17:14.136Z,19.15
2023-12-15T02:19:40.537Z,19.05
2023-12-15T02:22:07.011Z,19.08
2023-12-15T02:24:33.430Z,19.48
2023-12-15T02:26:59.950Z,19.55
2023-12-15T02:29:28.034Z,19.42
2023-12-15T02:31:55.182Z,21.05
2023-12-15T02:34:21.832Z,20.77
2023-12-15T02:36:48.301Z,20.55
2023-12-15T02:39:14.680Z,20.05
2023-12-15T02:41:41.033Z,18.52
2023-12-15T02:44:07.439Z,19.63
2023-12-15T02:46:37.233Z,19.33
2023-12-15T02:49:03.718Z,19.10
2023-12-15T02:51:30.783Z,18.92
2023-12-15T02:54:01.050Z,19.15
2023-12-15T02:56:27.945Z,20.50
2023-12-15T02:58:54.740Z,19.48
2023-12-15T03:01:21.260Z,20.27
2023-12-15T03:03:47.759Z,20.25
2023-12-15T03:06:14.273Z,20.17
2023-12-15T03:08:40.702Z,20.00
2023-12-15T03:11:07.830Z,20.25
2023-12-15T03:13:36.154Z,19.67
2023-12-15T03:16:08.211Z,19.92
2023-12-15T03:18:34.641Z,19.63
2023-12-15T03:21:01.161Z,19.23
2023-12-15T03:23:27.780Z,18.40
2023-12-15T03:25:54.182Z,19.23
2023-12-15T03:28:20.730Z,18.73
2023-12-15T03:30:47.190Z,19.40
2023-12-15T03:33:13.779Z,19.77
2023-12-15T03:35:40.226Z,19.65
2023-12-15T03:38:06.919Z,20.67
2023-12-15T03:40:33.666Z,20.70
2023-12-15T03:43:00.173Z,19.75
2023-12-15T03:45:26.883Z,21.05
2023-12-15T03:47:53.436Z,20.23
2023-12-15T03:50:19.989Z,20.38
2023-12-15T03:52:46.490Z,20.75
2023-12-15T03:55:12.952Z,19.95
2023-12-15T03:57:40.131Z,20.27
2023-12-15T04:00:09.212Z,20.00
2023-12-15T04:02:36.076Z,19.98
2023-12-15T04:05:03.322Z,18.75
2023-12-15T04:07:29.925Z,19.92
2023-12-15T04:09:56.360Z,19.30
2023-12-15T04:12:22.844Z,18.58
2023-12-15T04:14:49.224Z,19.70
2023-12-15T04:17:15.605Z,18.67
2023-12-15T04:19:42.246Z,20.33
2023-12-15T04:22:08.789Z,19.75
2023-12-15T04:24:35.148Z,19.95
2023-12-15T04:27:01.573Z,20.90
2023-12-15T04:29:28.032Z,21.42
2023-12-15T04:31:54.480Z,19.70
2023-12-15T04:34:20.951Z,20.65
2023-12-15T04:36:47.473Z,19.95
2023-12-15T04:39:13.947Z,20.92
2023-12-15T04:41:40.335Z,20.80
2023-12-15T04:44:06.740Z,20.20
2023-12-15T04:46:33.157Z,21.35
2023-12-15T04:49:03.269Z,21.17
2023-12-15T04:51:29.747Z,22.10
2023-12-15T04:53:56.224Z,22.15
2023-12-15T04:56:22.627Z,22.05
2023-12-15T04:58:49.061Z,22.95
2023-12-15T05:01:15.703Z,21.85
2023-12-15T05:03:42.530Z,22.50
2023-12-15T05:06:19.084Z,21.77
2023-12-15T05:08:45.803Z,22.88
2023-12-15T05:11:12.177Z,21.48
2023-12-15T05:13:38.797Z,22.73
2023-12-15T05:16:05.816Z,22.35
2023-12-15T05:18:32.300Z,22.25
2023-12-15T05:20:58.868Z,21.95
2023-12-15T05:23:25.327Z,23.15
2023-12-15T05:25:51.738Z,22.95
2023-12-15T05:28:18.162Z,22.17
2023-12-15T05:30:44.623Z,23.23
2023-12-15T05:33:11.267Z,23.23
2023-12-15T05:35:37.884Z,22.90
2023-12-15T05:38:04.451Z,22.27
2023-12-15T05:40:31.028Z,22.70
2023-12-15T05:42:57.470Z,23.10
2023-12-15T05:45:23.889Z,23.20
2023-12-15T05:47:50.392Z,22.65
2023-12-15T05:50:17.210Z,21.60
2023-12-15T05:52:43.671Z,22.85
2023-12-15T05:55:10.087Z,21.40
2023-12-15T05:57:36.720Z,20.63
2023-12-15T06:00:04.334Z,22.38
2023-12-15T06:02:30.782Z,22.85
2023-12-15T06:04:57.327Z,22.77
2023-12-15T06:07:23.788Z,22.50
2023-12-15T06:09:50.223Z,22.58
2023-12-15T06:12:17.271Z,23.00
2023-12-15T06:14:43.751Z,22.52
2023-12-15T06:17:11.330Z,22.70
2023-12-15T06:19:43.936Z,21.50
2023-12-15T06:22:10.373Z,22.77
2023-12-15T06:24:36.770Z,22.45
2023-12-15T06:27:04.706Z,24.23
2023-12-15T06:29:31.180Z,24.42
2023-12-15T06:31:57.644Z,24.42
2023-12-15T06:34:24.167Z,25.20
2023-12-15T06:36:50.568Z,25.35
2023-12-15T06:39:17.018Z,26.63
2023-12-15T06:41:43.489Z,25.88
2023-12-15T06:44:09.967Z,27.10
2023-12-15T06:46:38.083Z,26.77
2023-12-15T06:49:04.611Z,28.45
2023-12-15T06:51:31.059Z,28.23
2023-12-15T06:53:57.946Z,27.42
2023-12-15T06:56:24.564Z,28.20
2023-12-15T06:58:50.966Z,28.95
2023-12-15T07:01:17.435Z,28.45
2023-12-15T07:03:43.993Z,28.73
2023-12-15T07:06:10.535Z,27.70
2023-12-15T07:08:37.122Z,28.05
2023-12-15T07:11:03.739Z,27.05
2023-12-15T07:13:30.111Z,28.45
2023-12-15T07:15:56.610Z,28.13
2023-12-15T07:18:23.093Z,26.55
2023-12-15T07:20:49.582Z,27.80
2023-12-15T07:23:16.003Z,29.25
2023-12-15T07:25:42.489Z,27.00
2023-12-15T07:28:08.952Z,26.95
2023-12-15T07:30:35.528Z,28.13
2023-12-15T07:33:02.115Z,28.13
2023-12-15T07:35:32.771Z,27.65
2023-12-15T07:38:00.263Z,28.20
2023-12-15T07:40:26.855Z,28.25
2023-12-15T07:42:53.279Z,28.38
2023-12-15T07:45:19.675Z,28.77
2023-12-15T07:47:46.166Z,28.35
2023-12-15T07:50:12.807Z,28.67
2023-12-15T07:52:39.303Z,29.48
2023-12-15T07:55:06.014Z,26.83
2023-12-15T07:57:33.746Z,27.90
2023-12-15T08:00:00.208Z,27.48
2023-12-15T08:02:26.648Z,28.33
2023-12-15T08:04:53.053Z,26.88
2023-12-15T08:07:19.480Z,28.10
2023-12-15T08:09:45.845Z,27.48
2023-12-15T08:12:12.345Z,26.45
2023-12-15T08:14:38.846Z,26.80
2023-12-15T08:17:05.683Z,27.00
2023-12-15T08:19:32.989Z,27.13
2023-12-15T08:22:00.727Z,27.13
2023-12-15T08:24:27.638Z,28.15
2023-12-15T08:26:55.132Z,26.80
2023-12-15T08:29:22.206Z,25.67
2023-12-15T08:31:50.238Z,26.40
2023-12-15T08:34:16.976Z,24.50
2023-12-15T08:36:44.875Z,26.40
2023-12-15T08:39:14.100Z,26.38
2023-12-15T08:41:42.376Z,27.30
2023-12-15T08:44:16.621Z,27.35
2023-12-15T08:46:50.517Z,25.17
2023-12-15T08:49:16.966Z,25.73
2023-12-15T08:51:43.390Z,24.83
2023-12-15T08:54:09.769Z,24.90
2023-12-15T08:56:36.328Z,24.75
2023-12-15T08:59:02.819Z,25.00
2023-12-15T09:01:29.249Z,24.65
2023-12-15T09:03:55.781Z,23.67
2023-12-15T09:06:27.352Z,24.48
2023-12-15T09:08:56.897Z,24.88
2023-12-15T09:11:23.510Z,22.63
2023-12-15T09:13:49.920Z,23.92
2023-12-15T09:16:16.571Z,23.48
2023-12-15T09:18:43.165Z,25.08
2023-12-15T09:21:09.619Z,24.13
2023-12-15T09:23:38.613Z,23.70
2023-12-15T09:26:05.178Z,23.70
2023-12-15T09:28:31.615Z,23.10
2023-12-15T09:30:58.002Z,24.40
2023-12-15T09:33:24.489Z,25.05
2023-12-15T09:35:54.734Z,22.75
2023-12-15T09:38:21.890Z,23.73
2023-12-15T09:40:49.166Z,23.33
2023-12-15T09:43:15.665Z,22.38
2023-12-15T09:45:42.080Z,22.10
2023-12-15T09:48:09.247Z,21.13
2023-12-15T09:50:35.995Z,21.00
2023-12-15T09:53:03.489Z,19.45
2023-12-15T09:55:31.332Z,19.55
2023-12-15T09:57:59.018Z,20.20
2023-12-15T10:00:25.544Z,19.35
2023-12-15T10:02:52.021Z,19.27
2023-12-15T10:05:18.543Z,20.00
2023-12-15T10:07:45.576Z,19.35
2023-12-15T10:10:12.559Z,19.67
2023-12-15T10:12:39.283Z,19.80
2023-12-15T10:15:08.139Z,19.15
2023-12-15T10:17:35.388Z,18.20
2023-12-15T10:20:07.173Z,17.45
2023-12-15T10:22:33.669Z,17.75
2023-12-15T10:25:00.016Z,18.55
2023-12-15T10:27:26.555Z,17.83
2023-12-15T10:29:53.695Z,17.50
2023-12-15T10:32:20.190Z,17.33
2023-12-15T10:34:47.755Z,16.88
2023-12-15T10:37:14.156Z,16.83
2023-12-15T10:39:40.694Z,15.52
2023-12-15T10:42:07.153Z,16.08
2023-12-15T10:44:34.887Z,15.77
2023-12-15T10:47:02.029Z,15.43
2023-12-15T10:49:37.546Z,15.60
2023-12-15T10:52:07.870Z,15.40
2023-12-15T10:54:35.472Z,15.32
2023-12-15T10:57:02.242Z,15.05
2023-12-15T10:59:31.379Z,15.40
2023-12-15T11:01:58.011Z,15.90
2023-12-15T11:04:24.515Z,14.48
2023-12-15T11:06:51.146Z,14.85
2023-12-15T11:09:46.128Z,15.15
2023-12-15T11:12:29.219Z,13.85
2023-12-15T11:15:00.671Z,12.95
2023-12-15T11:17:30.908Z,14.75
2023-12-15T11:19:58.451Z,14.68
2023-12-15T11:22:24.899Z,14.93
2023-12-15T11:24:51.367Z,13.95
2023-12-15T11:27:17.868Z,15.35
2023-12-15T11:29:44.272Z,15.05
2023-12-15T11:32:37.611Z,15.38
2023-12-15T11:35:06.123Z,14.30
2023-12-15T11:37:33.638Z,14.23
2023-12-15T11:40:01.724Z,15.18
2023-12-15T11:42:28.162Z,14.98
2023-12-15T11:44:54.558Z,15.65
2023-12-15T11:47:21.099Z,14.93
2023-12-15T11:49:47.688Z,14.23
2023-12-15T11:52:14.202Z,14.60
2023-12-15T11:54:40.894Z,14.27
2023-12-15T11:57:07.334Z,14.23
2023-12-15T11:59:37.421Z,13.90
2023-12-15T12:02:04.035Z,13.55
2023-12-15T12:04:31.424Z,14.18
2023-12-15T12:06:58.750Z,14.40
2023-12-15T12:09:25.821Z,14.00
2023-12-15T12:11:56.677Z,14.40
2023-12-15T12:14:25.044Z,13.98
2023-12-15T12:16:53.296Z,13.98
2023-12-15T12:19:22.859Z,15.10
2023-12-15T12:21:51.943Z,14.40
2023-12-15T12:24:18.378Z,14.68
2023-12-15T12:26:45.026Z,14.10
2023-12-15T12:29:13.717Z,13.95
2023-12-15T12:31:40.129Z,14.82
2023-12-15T12:34:06.557Z,13.52
2023-12-15T12:36:33.117Z,14.73
2023-12-15T12:39:00.296Z,13.68
2023-12-15T12:41:26.838Z,13.27
2023-12-15T12:43:53.230Z,12.60
2023-12-15T12:46:19.646Z,12.60
2023-12-15T12:48:48.766Z,13.10
2023-12-15T12:51:15.616Z,13.17
2023-12-15T12:53:42.133Z,12.55
2023-12-15T12:56:08.973Z,11.18
2023-12-15T12:58:35.564Z,11.38
2023-12-15T13:01:02.046Z,11.30
2023-12-15T13:03:28.528Z,10.82
2023-12-15T13:05:56.575Z,10.40
2023-12-15T13:08:23.174Z,11.30
2023-12-15T13:10:49.744Z,11.02
2023-12-15T13:13:16.107Z,10.65
2023-12-15T13:15:42.542Z,10.43
2023-12-15T13:18:11.349Z,10.73
2023-12-15T13:20:38.859Z,11.18
2023-12-15T13:23:05.284Z,10.55
2023-12-15T13:25:32.034Z,11.85
2023-12-15T13:27:58.436Z,10.65
2023-12-15T13:30:25.012Z,10.65
2023-12-15T13:32:51.691Z,11.30
2023-12-15T13:35:18.317Z,11.23
2023-12-15T13:37:44.841Z,11.68
2023-12-15T13:40:12.884Z,11.30
2023-12-15T13:42:39.832Z,11.00
2023-12-15T13:45:06.734Z,10.48
2023-12-15T13:47:34.691Z,11.10
2023-12-15T13:50:01.444Z,10.25
2023-12-15T13:52:27.917Z,10.20
2023-12-15T13:54:54.447Z,10.43
2023-12-15T13:57:20.924Z,10.18
2023-12-15T13:59:47.348Z,10.63
2023-12-15T14:02:13.788Z,9.10
2023-12-15T14:04:40.798Z,8.90
2023-12-15T14:07:07.218Z,9.40
2023-12-15T14:09:33.657Z,9.07
2023-12-15T14:12:00.209Z,9.32
2023-12-15T14:14:27.158Z,9.57
2023-12-15T14:16:53.570Z,8.80
2023-12-15T14:19:20.465Z,8.70
2023-12-15T14:21:47.516Z,10.18
2023-12-15T14:24:19.219Z,9.93
2023-12-15T14:26:46.201Z,8.38
2023-12-15T14:29:12.832Z,8.73
2023-12-15T14:31:39.674Z,9.10
2023-12-15T14:34:06.385Z,8.82
2023-12-15T14:36:32.964Z,9.00
2023-12-15T14:38:59.373Z,9.23
2023-12-15T14:41:27.962Z,8.65
2023-12-15T14:43:54.490Z,8.95
2023-12-15T14:46:21.012Z,8.75
2023-12-15T14:48:47.852Z,8.55
2023-12-15T14:51:15.301Z,9.40
2023-12-15T14:53:41.722Z,8.80
2023-12-15T14:56:11.401Z,8.32
2023-12-15T14:58:38.133Z,8.38
2023-12-15T15:01:05.205Z,8.23
2023-12-15T15:03:31.657Z,9.48
2023-12-15T15:05:58.222Z,8.40
2023-12-15T15:08:24.773Z,9.13
2023-12-15T15:10:51.182Z,9.25
2023-12-15T15:13:20.218Z,9.57
2023-12-15T15:15:48.291Z,9.27
2023-12-15T15:18:15.480Z,9.20
2023-12-15T15:20:42.090Z,9.35
2023-12-15T15:23:08.542Z,9.80
2023-12-15T15:25:34.975Z,8.90
2023-12-15T15:28:01.377Z,9.13
2023-12-15T15:30:27.850Z,10.15
2023-12-15T15:32:55.059Z,9.48
2023-12-15T15:35:22.548Z,9.82
2023-12-15T15:37:49.144Z,9.18
2023-12-15T15:40:15.594Z,9.63
2023-12-15T15:42:42.049Z,9.23
2023-12-15T15:45:08.657Z,9.07
2023-12-15T15:47:35.073Z,10.07
2023-12-15T15:50:01.485Z,9.27
2023-12-15T15:52:27.824Z,10.02
2023-12-15T15:54:54.226Z,9.07
2023-12-15T15:57:21.221Z,9.95
2023-12-15T15:59:47.575Z,9.88
2023-12-15T16:02:14.102Z,9.63
2023-12-15T16:04:40.815Z,9.02
2023-12-15T16:07:07.310Z,10.43
2023-12-15T16:09:33.705Z,9.57
2023-12-15T16:12:00.135Z,9.32
2023-12-15T16:14:26.607Z,9.45
2023-12-15T16:16:52.986Z,10.32
2023-12-15T16:19:19.493Z,9.90
2023-12-15T16:21:45.958Z,9.30
2023-12-15T16:24:12.526Z,9.52
2023-12-15T16:26:41.845Z,8.98
2023-12-15T16:29:08.501Z,9.35
2023-12-15T16:31:34.894Z,8.98
2023-12-15T16:34:02.781Z,9.27
2023-12-15T16:36:29.357Z,9.88
2023-12-15T16:38:55.752Z,9.10
2023-12-15T16:41:28.590Z,8.45
2023-12-15T16:43:54.995Z,8.57
2023-12-15T16:46:21.708Z,8.80
2023-12-15T16:48:55.298Z,8.82
2023-12-15T16:51:23.130Z,9.85
2023-12-15T16:53:49.737Z,9.55
2023-12-15T16:56:16.193Z,9.10
2023-12-15T17:01:33.438Z,9.15
2023-12-15T17:03:59.910Z,8.93
2023-12-15T17:06:26.456Z,9.55
2023-12-15T17:08:53.066Z,8.68
2023-12-15T17:11:19.715Z,9.27
2023-12-15T17:13:46.192Z,8.93
2023-12-15T17:16:13.526Z,8.38
2023-12-15T17:18:40.210Z,8.88
2023-12-15T17:21:11.648Z,8.90
2023-12-15T17:23:38.127Z,8.50
2023-12-15T17:26:04.595Z,8.55
2023-12-15T17:28:31.187Z,7.90
2023-12-15T17:30:57.692Z,8.35
2023-12-15T17:33:24.240Z,8.23
2023-12-15T17:35:50.805Z,8.25
2023-12-15T17:38:17.261Z,8.32
2023-12-15T17:40:43.789Z,8.10
2023-12-15T17:43:10.307Z,8.65
2023-12-15T17:45:39.814Z,8.23
2023-12-15T17:48:10.262Z,8.77
2023-12-15T17:50:39.781Z,9.15
2023-12-15T17:53:06.351Z,9.50
2023-12-15T17:55:34.114Z,8.93
2023-12-15T17:58:02.715Z,8.27
2023-12-15T18:00:29.440Z,8.45
2023-12-15T18:02:55.970Z,8.52
2023-12-15T18:05:22.499Z,8.50
2023-12-15T18:07:49.046Z,8.20
2023-12-15T18:10:20.309Z,8.05
2023-12-15T18:12:47.209Z,9.13
2023-12-15T18:15:14.666Z,7.63
2023-12-15T18:20:08.744Z,7.63
2023-12-15T18:22:35.763Z,8.07
2023-12-15T18:25:02.265Z,8.30
2023-12-15T18:27:28.800Z,8.95
2023-12-15T18:29:57.138Z,8.05
2023-12-15T18:32:23.720Z,7.70
2023-12-15T18:34:50.491Z,8.30
2023-12-15T18:37:17.061Z,7.85
2023-12-15T18:39:44.038Z,7.57
2023-12-15T18:42:10.464Z,7.90
2023-12-15T18:44:38.254Z,7.60
2023-12-15T18:47:04.685Z,8.40
2023-12-15T18:49:31.729Z,8.45
2023-12-15T18:51:58.299Z,8.15
2023-12-15T18:54:24.834Z,7.80
2023-12-15T18:56:51.219Z,7.63
2023-12-15T18:59:17.631Z,7.50
2023-12-15T19:01:44.206Z,8.20
2023-12-15T19:04:13.699Z,7.75
2023-12-15T19:06:40.356Z,7.83
2023-12-15T19:09:07.357Z,8.00
2023-12-15T19:11:34.095Z,8.48
2023-12-15T19:14:00.798Z,7.88
2023-12-15T19:16:28.321Z,7.32
2023-12-15T19:18:55.136Z,8.63
2023-12-15T19:21:22.768Z,8.38
2023-12-15T19:23:53.706Z,7.57
2023-12-15T19:26:20.891Z,7.63
2023-12-15T19:28:47.899Z,7.00
2023-12-15T19:31:14.587Z,7.95
2023-12-15T19:33:42.144Z,7.45
2023-12-15T19:36:08.998Z,7.05
2023-12-15T19:38:35.459Z,7.50
2023-12-15T19:41:01.867Z,7.75
2023-12-15T19:43:30.102Z,7.75
2023-12-15T19:45:56.985Z,7.30
2023-12-15T19:48:23.540Z,6.95
2023-12-15T19:50:50.201Z,6.80
2023-12-15T19:53:16.595Z,7.55
2023-12-15T19:55:43.051Z,7.07
2023-12-15T19:58:09.517Z,7.57
2023-12-15T20:00:36.957Z,8.10
2023-12-15T20:03:04.329Z,7.53
2023-12-15T20:05:30.863Z,7.40
2023-12-15T20:07:57.394Z,8.48
2023-12-15T20:10:23.864Z,7.90
2023-12-15T20:12:50.521Z,7.80
2023-12-15T20:15:17.853Z,8.40
2023-12-15T20:17:45.638Z,21.08
2023-12-15T20:20:12.859Z,8.32
2023-12-15T20:22:39.346Z,7.40
2023-12-15T20:25:07.777Z,13.48
2023-12-15T20:27:42.304Z,9.27
2023-12-15T20:30:11.879Z,9.15
2023-12-15T20:32:38.791Z,8.13
2023-12-15T20:35:09.433Z,8.07
2023-12-15T20:37:36.246Z,8.50
2023-12-15T20:40:03.116Z,13.52
2023-12-15T20:42:30.415Z,10.40
2023-12-15T20:44:57.169Z,30.00
2023-12-15T20:47:24.155Z,10.32
2023-12-15T20:49:50.679Z,10.05
2023-12-15T20:52:18.083Z,10.95
2023-12-15T20:54:44.690Z,13.40
2023-12-15T20:57:11.151Z,14.20
2023-12-15T20:59:41.370Z,30.50
2023-12-15T21:02:08.107Z,40.85
2023-12-15T21:04:36.909Z,9.93
2023-12-15T21:07:04.950Z,26.45
2023-12-15T21:09:31.566Z,22.23
2023-12-15T21:11:58.592Z,25.95
2023-12-15T21:14:25.255Z,11.27
2023-12-15T21:16:53.182Z,8.80
2023-12-15T21:19:19.787Z,10.85
2023-12-15T21:21:49.523Z,8.85
2023-12-15T21:24:21.516Z,12.80
2023-12-15T21:26:51.963Z,9.85
2023-12-15T21:29:24.339Z,9.30
2023-12-15T21:31:57.425Z,9.38
2023-12-15T21:34:25.128Z,8.95
2023-12-15T21:36:53.243Z,10.27
2023-12-15T21:39:23.300Z,9.00
2023-12-15T21:41:53.508Z,11.30
2023-12-15T21:44:20.186Z,9.77
2023-12-15T21:46:50.188Z,9.52
2023-12-15T21:49:27.621Z,9.68
2023-12-15T21:51:54.403Z,10.15
2023-12-15T21:54:21.719Z,8.95
2023-12-15T21:56:48.497Z,8.63
2023-12-15T21:59:14.988Z,8.40
2023-12-15T22:01:46.310Z,9.05
2023-12-15T22:04:13.129Z,8.38
2023-12-15T22:06:52.674Z,9.40
2023-12-15T22:09:23.579Z,12.23
2023-12-15T22:11:50.850Z,10.85
2023-12-15T22:14:21.772Z,11.43
2023-12-15T22:16:53.649Z,10.40
2023-12-15T22:19:21.483Z,9.43
2023-12-15T22:21:48.008Z,8.75
2023-12-15T22:24:14.859Z,8.10
2023-12-15T22:26:46.600Z,8.27
2023-12-15T22:29:14.223Z,9.52
2023-12-15T22:31:44.870Z,8.75
2023-12-15T22:34:12.491Z,7.85
2023-12-15T22:36:42.834Z,9.65
2023-12-15T22:39:09.499Z,8.27
2023-12-15T22:41:35.959Z,8.27
2023-12-15T22:44:02.476Z,8.43
2023-12-15T22:46:34.395Z,9.10
2023-12-15T22:49:00.976Z,8.80
2023-12-15T22:51:27.592Z,8.82
2023-12-15T22:53:54.032Z,9.40
2023-12-15T22:56:20.624Z,9.73
2023-12-15T22:58:48.953Z,8.98
2023-12-15T23:01:15.605Z,9.07
2023-12-15T23:03:43.934Z,9.07
2023-12-15T23:06:11.392Z,8.20
2023-12-15T23:08:37.970Z,9.68
2023-12-15T23:11:04.785Z,7.78
2023-12-15T23:13:31.304Z,7.90
2023-12-15T23:15:57.933Z,7.32
2023-12-15T23:18:29.677Z,7.05
2023-12-15T23:21:01.421Z,7.38
2023-12-15T23:23:30.174Z,7.57
2023-12-15T23:25:56.693Z,7.75
2023-12-15T23:28:25.525Z,8.13
2023-12-15T23:30:54.350Z,7.22
2023-12-15T23:33:21.459Z,7.78
2023-12-15T23:35:47.931Z,8.20
2023-12-15T23:38:14.563Z,8.25
2023-12-15T23:40:40.988Z,9.05
2023-12-15T23:43:07.594Z,8.98
2023-12-15T23:45:34.217Z,8.45
2023-12-15T23:48:00.879Z,8.32
2023-12-15T23:50:27.430Z,8.32
2023-12-15T23:52:54.049Z,8.10
2023-12-15T23:55:20.515Z,7.85
2023-12-15T23:57:47.000Z,8.05
